Time;durP1;ratioP1;P1;durP2;ratioP2;P2;SDS_P1;SDS_P2;PMS_P1;PMS_P2;Temp;Humidity;BMP_temperature;BMP_pressure;BME280_temperature;BME280_humidity;BME280_pressure;Samples;Min_cycle;Max_cycle;Signal;HPM_P1;HPM_P2
2021/04/25 00:01:34;;;;;;;19.20;7.00;;;;;;;4.62;72.72;103094.91;5034510;28;20170;-69
2021/04/25 00:04:01;;;;;;;13.68;6.45;;;;;;;4.63;72.12;103102.88;5041233;28;20664;-70
2021/04/25 00:06:28;;;;;;;17.13;6.55;;;;;;;4.64;72.01;103107.28;5036043;28;20061;-69
2021/04/25 00:08:55;;;;;;;13.52;5.40;;;;;;;4.60;71.67;103105.44;5035659;28;20060;-69
2021/04/25 00:11:22;;;;;;;15.35;6.25;;;;;;;4.60;71.90;103108.06;5038587;28;20068;-70
2021/04/25 00:13:49;;;;;;;16.70;6.13;;;;;;;4.60;71.74;103104.53;5037221;28;20057;-70
2021/04/25 00:16:17;;;;;;;12.07;5.85;;;;;;;4.59;72.31;103105.38;5045632;28;20065;-70
2021/04/25 00:18:44;;;;;;;15.48;6.82;;;;;;;4.60;71.94;103118.66;5052448;28;20065;-69
2021/04/25 00:21:11;;;;;;;16.70;6.57;;;;;;;4.57;73.17;103109.75;5046998;28;20061;-70
2021/04/25 00:23:39;;;;;;;13.45;6.72;;;;;;;4.49;71.95;103106.84;5037798;28;20065;-70
2021/04/25 00:26:06;;;;;;;14.27;6.38;;;;;;;4.46;72.63;103112.97;5042924;28;20111;-69
2021/04/25 00:28:32;;;;;;;15.82;6.35;;;;;;;4.44;72.59;103116.41;5038000;28;20087;-70
2021/04/25 00:31:00;;;;;;;14.20;6.90;;;;;;;4.40;72.82;103106.59;5041005;28;20061;-70
2021/04/25 00:33:27;;;;;;;15.98;6.13;;;;;;;4.33;72.36;103102.88;5039956;28;20052;-70
2021/04/25 00:35:54;;;;;;;16.85;7.03;;;;;;;4.27;73.01;103103.59;5040058;28;20061;-70
2021/04/25 00:38:21;;;;;;;15.18;6.30;;;;;;;4.24;72.60;103103.50;5042654;28;20065;-70
2021/04/25 00:40:48;;;;;;;16.92;7.50;;;;;;;4.19;73.69;103105.09;5039364;28;20594;-70
2021/04/25 00:43:15;;;;;;;19.75;7.43;;;;;;;4.17;73.51;103098.88;5040123;28;20059;-70
2021/04/25 00:45:42;;;;;;;17.33;7.95;;;;;;;4.14;74.25;103093.50;5043386;28;20071;-70
2021/04/25 00:48:09;;;;;;;20.17;8.18;;;;;;;4.13;73.73;103102.25;5043400;28;20064;-71
2021/04/25 00:50:37;;;;;;;16.60;7.07;;;;;;;4.12;73.52;103092.56;5036197;28;20061;-69
2021/04/25 00:53:04;;;;;;;16.98;6.60;;;;;;;4.09;74.41;103089.81;5040419;28;20115;-70
2021/04/25 00:55:32;;;;;;;16.75;7.00;;;;;;;4.03;74.66;103100.19;5041500;28;20067;-69
2021/04/25 00:58:03;;;;;;;16.95;6.55;;;;;;;4.02;74.48;103090.44;5039073;28;20075;-70
2021/04/25 01:00:32;;;;;;;15.32;6.75;;;;;;;4.01;74.69;103089.56;5041435;28;20060;-70
2021/04/25 01:03:01;;;;;;;20.77;7.28;;;;;;;3.96;75.03;103082.34;5039602;28;20804;-70
2021/04/25 01:05:28;;;;;;;16.88;6.70;;;;;;;3.94;75.42;103090.22;5040675;28;20148;-70
2021/04/25 01:07:55;;;;;;;20.55;6.97;;;;;;;3.98;75.75;103083.28;5038642;28;20088;-70
2021/04/25 01:10:22;;;;;;;21.00;7.95;;;;;;;3.98;76.20;103091.22;5042506;28;20052;-70
2021/04/25 01:12:48;;;;;;;18.23;7.75;;;;;;;4.00;76.25;103094.81;5039295;28;20082;-70
2021/04/25 01:15:18;;;;;;;17.67;7.28;;;;;;;4.09;76.19;103097.75;5039579;28;20155;-69
2021/04/25 01:17:48;;;;;;;18.67;8.93;;;;;;;4.05;76.05;103090.56;5045005;28;20060;-69
2021/04/25 01:20:17;;;;;;;19.55;8.15;;;;;;;4.07;76.15;103092.41;5052636;28;20143;-70
2021/04/25 01:22:46;;;;;;;19.90;7.05;;;;;;;4.08;75.88;103088.91;5043475;28;20084;-70
2021/04/25 01:25:16;;;;;;;18.48;7.60;;;;;;;4.13;75.60;103091.69;5036808;28;20060;-70
2021/04/25 01:27:43;;;;;;;15.70;6.75;;;;;;;4.15;75.76;103086.47;5044266;28;20053;-69
2021/04/25 01:30:14;;;;;;;15.75;7.13;;;;;;;4.21;75.70;103086.66;5038675;28;20468;-69
2021/04/25 01:32:42;;;;;;;18.52;8.00;;;;;;;4.23;75.40;103084.94;5042938;28;20136;-70
2021/04/25 01:35:11;;;;;;;15.07;6.70;;;;;;;4.30;75.37;103092.19;5041867;28;20150;-69
2021/04/25 01:37:38;;;;;;;16.33;6.18;;;;;;;4.33;74.15;103081.72;5040845;28;20053;-69
2021/04/25 01:40:08;;;;;;;13.85;6.05;;;;;;;4.36;74.10;103083.53;5040563;28;20057;-70
2021/04/25 01:42:35;;;;;;;18.27;6.38;;;;;;;4.41;74.45;103085.50;5036982;28;20080;-69
2021/04/25 01:45:04;;;;;;;12.93;6.25;;;;;;;4.46;74.19;103080.31;5044189;28;20061;-69
2021/04/25 01:47:31;;;;;;;13.40;5.40;;;;;;;4.53;73.54;103087.59;5037838;28;20306;-71
2021/04/25 01:49:58;;;;;;;16.55;6.45;;;;;;;4.62;73.43;103071.09;5056784;28;20092;-70
2021/04/25 01:52:25;;;;;;;11.95;4.95;;;;;;;4.83;73.25;103078.72;5035721;28;20053;-70
2021/04/25 01:54:52;;;;;;;15.23;6.65;;;;;;;4.86;72.65;103076.16;5040909;28;20081;-70
2021/04/25 01:57:20;;;;;;;16.52;6.05;;;;;;;4.88;73.05;103078.84;5039978;28;20067;-70
2021/04/25 01:59:47;;;;;;;11.93;5.55;;;;;;;4.91;73.23;103078.94;5040644;28;20068;-70
2021/04/25 02:02:14;;;;;;;19.95;7.15;;;;;;;4.99;72.84;103075.66;5036904;28;20048;-70
2021/04/25 02:04:41;;;;;;;18.38;6.55;;;;;;;5.04;72.78;103070.50;5042778;28;20259;-70
2021/04/25 02:07:08;;;;;;;12.80;5.35;;;;;;;5.05;72.58;103067.84;5041808;28;20138;-70
2021/04/25 02:09:35;;;;;;;16.25;6.03;;;;;;;5.03;73.16;103076.63;5042185;28;20087;-70
2021/04/25 02:12:03;;;;;;;13.27;5.22;;;;;;;5.03;73.09;103068.69;5040718;28;20060;-70
2021/04/25 02:14:31;;;;;;;18.75;6.75;;;;;;;5.04;72.91;103078.44;5040224;28;20052;-70
2021/04/25 02:16:59;;;;;;;16.35;6.32;;;;;;;5.09;72.47;103081.16;5040839;28;20063;-69
2021/04/25 02:19:26;;;;;;;11.70;6.18;;;;;;;5.15;71.77;103076.94;5039586;28;20251;-70
2021/04/25 02:21:53;;;;;;;13.98;5.65;;;;;;;5.22;71.45;103085.94;5041917;28;20136;-70
2021/04/25 02:24:20;;;;;;;14.23;5.05;;;;;;;5.20;70.97;103085.00;5035529;28;20063;-70
2021/04/25 02:26:47;;;;;;;12.30;5.57;;;;;;;5.20;71.10;103079.72;5040370;28;20092;-70
2021/04/25 02:29:14;;;;;;;15.65;5.75;;;;;;;5.21;70.18;103070.91;5037028;28;20084;-70
2021/04/25 02:31:42;;;;;;;11.70;5.47;;;;;;;5.24;69.77;103087.78;5038496;28;20053;-69
2021/04/25 02:34:09;;;;;;;13.98;5.10;;;;;;;5.20;69.60;103077.06;5037610;28;20061;-69
2021/04/25 02:36:36;;;;;;;12.98;5.75;;;;;;;5.19;69.19;103081.47;5043163;28;20328;-69
2021/04/25 02:39:04;;;;;;;13.05;5.90;;;;;;;5.17;70.02;103083.16;5038100;28;20316;-69
2021/04/25 02:41:31;;;;;;;11.88;5.93;;;;;;;5.14;69.74;103085.75;5038712;28;20515;-70
2021/04/25 02:43:58;;;;;;;11.32;5.70;;;;;;;5.16;69.30;103085.75;5035523;28;20052;-69
2021/04/25 02:46:25;;;;;;;14.55;5.63;;;;;;;5.13;69.32;103088.34;5040399;28;20100;-70
2021/04/25 02:48:52;;;;;;;12.90;5.63;;;;;;;5.02;69.74;103077.47;5032192;28;20060;-70
2021/04/25 02:51:19;;;;;;;11.90;5.85;;;;;;;4.94;69.97;103082.56;5038754;28;20352;-70
2021/04/25 02:53:46;;;;;;;15.55;6.65;;;;;;;4.91;70.43;103078.94;5036527;28;21356;-71
2021/04/25 02:56:14;;;;;;;13.65;5.55;;;;;;;4.78;70.66;103078.59;5041197;28;20087;-70
2021/04/25 02:58:41;;;;;;;17.15;5.60;;;;;;;4.74;70.59;103084.66;5045428;28;20138;-70
2021/04/25 03:01:09;;;;;;;12.60;5.65;;;;;;;4.65;70.79;103072.06;5034661;28;20490;-70
2021/04/25 03:03:35;;;;;;;15.70;5.38;;;;;;;4.68;70.66;103069.53;5041918;28;20462;-70
2021/04/25 03:06:04;;;;;;;12.68;5.63;;;;;;;4.57;71.19;103068.31;5037076;28;20106;-70
2021/04/25 03:08:31;;;;;;;13.68;6.10;;;;;;;4.52;71.12;103063.75;5038043;28;20080;-70
2021/04/25 03:10:57;;;;;;;12.80;6.07;;;;;;;4.56;71.19;103065.63;5038887;28;20061;-70
2021/04/25 03:13:24;;;;;;;12.90;5.57;;;;;;;4.47;71.09;103063.63;5039032;28;20092;-70
2021/04/25 03:15:51;;;;;;;13.60;5.78;;;;;;;4.47;70.62;103069.78;5031912;28;20064;-76
2021/04/25 03:18:21;;;;;;;11.52;4.82;;;;;;;4.40;70.74;103069.59;5042488;28;20546;-76
2021/04/25 03:20:48;;;;;;;12.93;5.65;;;;;;;4.34;70.90;103066.75;5040461;28;20140;-76
2021/04/25 03:23:16;;;;;;;13.27;5.55;;;;;;;4.27;70.87;103066.59;5040879;28;20055;-75
2021/04/25 03:25:43;;;;;;;14.05;5.28;;;;;;;4.25;71.08;103072.66;5041130;28;20432;-76
2021/04/25 03:28:10;;;;;;;10.00;4.75;;;;;;;4.31;71.04;103078.16;5041118;28;20056;-76
2021/04/25 03:30:37;;;;;;;12.90;5.43;;;;;;;4.33;71.17;103067.63;5041321;28;20588;-76
2021/04/25 03:33:05;;;;;;;11.15;4.20;;;;;;;4.39;70.95;103067.78;5038991;28;20344;-76
2021/04/25 03:35:32;;;;;;;10.32;5.07;;;;;;;4.45;70.44;103076.78;5039378;28;20060;-76
2021/04/25 03:37:59;;;;;;;10.38;4.55;;;;;;;4.47;69.75;103066.25;5042683;28;20060;-77
2021/04/25 03:40:27;;;;;;;9.98;4.45;;;;;;;4.52;69.43;103072.56;5042866;28;20466;-76
2021/04/25 03:42:54;;;;;;;9.63;4.30;;;;;;;4.57;69.37;103064.78;5044104;28;20067;-76
2021/04/25 03:45:21;;;;;;;12.88;5.38;;;;;;;4.61;69.65;103058.72;5043622;28;20092;-77
2021/04/25 03:47:51;;;;;;;14.27;4.93;;;;;;;4.66;69.42;103059.75;5042748;28;20089;-77
2021/04/25 03:50:21;;;;;;;12.25;4.60;;;;;;;4.67;69.02;103058.91;5042737;28;20148;-77
2021/04/25 03:52:48;;;;;;;13.05;5.25;;;;;;;4.70;69.51;103055.44;5043879;28;20064;-77
2021/04/25 03:55:16;;;;;;;10.65;4.30;;;;;;;4.72;69.02;103052.00;5049151;28;20220;-77
2021/04/25 03:57:45;;;;;;;13.20;5.65;;;;;;;4.79;68.49;103051.28;5044716;28;20064;-78
2021/04/25 04:00:15;;;;;;;9.50;4.20;;;;;;;4.84;68.48;103059.38;5044654;28;20057;-76
2021/04/25 04:02:41;;;;;;;12.38;5.13;;;;;;;4.88;68.52;103057.69;5040045;28;20065;-76
2021/04/25 04:05:11;;;;;;;12.05;4.60;;;;;;;4.90;68.06;103062.16;5041283;28;20092;-76
2021/04/25 04:07:37;;;;;;;13.13;5.20;;;;;;;4.93;68.16;103058.72;5037559;28;20057;-78
2021/04/25 04:10:05;;;;;;;11.70;4.85;;;;;;;4.94;67.47;103063.13;5043140;28;20065;-75
2021/04/25 04:12:32;;;;;;;10.45;4.78;;;;;;;5.03;67.93;103056.34;5040329;28;20060;-76
2021/04/25 04:15:00;;;;;;;12.80;5.03;;;;;;;5.09;67.67;103049.41;5039750;28;20156;-70
2021/04/25 04:17:27;;;;;;;13.07;4.97;;;;;;;5.11;67.80;103047.69;5037705;28;20139;-70
2021/04/25 04:19:54;;;;;;;12.85;5.18;;;;;;;5.14;67.48;103045.13;5038083;28;20064;-70
2021/04/25 04:22:21;;;;;;;16.33;5.10;;;;;;;5.18;67.87;103053.19;5039139;28;20542;-70
2021/04/25 04:24:48;;;;;;;12.52;4.63;;;;;;;5.18;67.29;103057.59;5035188;28;20469;-69
2021/04/25 04:27:15;;;;;;;12.90;5.00;;;;;;;5.18;67.97;103055.84;5038552;28;20065;-70
2021/04/25 04:29:42;;;;;;;14.60;5.15;;;;;;;5.20;67.97;103067.38;5049209;28;20089;-70
2021/04/25 04:32:10;;;;;;;10.85;4.30;;;;;;;5.22;67.95;103059.47;5038269;28;20487;-70
2021/04/25 04:34:37;;;;;;;12.82;5.15;;;;;;;5.29;67.49;103064.06;5038221;28;20064;-70
2021/04/25 04:37:04;;;;;;;10.98;4.57;;;;;;;5.35;66.56;103045.69;5037922;28;20502;-69
2021/04/25 04:39:31;;;;;;;9.80;4.55;;;;;;;5.33;65.38;103039.47;5035647;28;20068;-70
2021/04/25 04:41:58;;;;;;;11.85;4.18;;;;;;;5.45;64.95;103061.78;5036273;28;20065;-70
2021/04/25 04:44:26;;;;;;;11.27;4.28;;;;;;;5.41;65.13;103059.09;5035584;28;20067;-70
2021/04/25 04:46:53;;;;;;;12.10;5.05;;;;;;;5.44;65.67;103055.59;5037853;28;20466;-70
2021/04/25 04:49:21;;;;;;;15.57;4.65;;;;;;;5.40;65.42;103048.47;5037012;28;20052;-70
2021/04/25 04:51:48;;;;;;;12.55;4.60;;;;;;;5.39;64.65;103058.13;5035528;28;20053;-70
2021/04/25 04:54:15;;;;;;;10.60;4.90;;;;;;;5.40;64.63;103061.69;5036199;28;20057;-70
2021/04/25 04:56:42;;;;;;;12.70;3.90;;;;;;;5.41;64.21;103059.09;5037202;28;20065;-69
2021/04/25 04:59:09;;;;;;;10.90;3.95;;;;;;;5.37;63.22;103056.31;5034562;28;20065;-70
2021/04/25 05:01:36;;;;;;;9.55;4.57;;;;;;;5.38;63.23;103063.38;5045256;28;20173;-70
2021/04/25 05:04:04;;;;;;;10.40;4.82;;;;;;;5.35;62.20;103063.34;5056885;28;20454;-70
2021/04/25 05:06:32;;;;;;;10.30;4.63;;;;;;;5.43;62.91;103062.66;5040872;28;20298;-72
2021/04/25 05:08:59;;;;;;;11.52;3.90;;;;;;;5.41;61.98;103058.16;5041590;28;20148;-70
2021/04/25 05:11:27;;;;;;;9.70;4.07;;;;;;;5.45;62.15;103062.69;5039552;28;20055;-70
2021/04/25 05:13:53;;;;;;;9.35;4.55;;;;;;;5.44;62.00;103071.50;5037336;28;20057;-70
2021/04/25 05:16:22;;;;;;;11.20;4.75;;;;;;;5.38;61.22;103069.59;5037999;28;20061;-70
2021/04/25 05:18:49;;;;;;;7.88;4.18;;;;;;;5.43;61.18;103077.63;5033967;28;20092;-70
2021/04/25 05:21:16;;;;;;;7.68;4.38;;;;;;;5.48;60.86;103076.00;5036759;28;20451;-70
2021/04/25 05:23:44;;;;;;;10.68;4.03;;;;;;;5.46;60.67;103074.19;5039524;28;20077;-70
2021/04/25 05:26:11;;;;;;;12.98;5.03;;;;;;;5.47;60.00;103078.63;5041108;28;20156;-70
2021/04/25 05:28:38;;;;;;;10.48;3.78;;;;;;;5.52;60.75;103077.88;5043266;28;20440;-71
2021/04/25 05:31:05;;;;;;;10.23;4.47;;;;;;;5.56;59.78;103078.84;5040649;28;20073;-70
2021/04/25 05:33:33;;;;;;;10.88;5.15;;;;;;;5.57;59.32;103075.34;5039800;28;20060;-71
2021/04/25 05:36:00;;;;;;;9.10;4.20;;;;;;;5.53;59.21;103074.34;5040259;28;20080;-71
2021/04/25 05:38:27;;;;;;;12.05;4.15;;;;;;;5.58;59.01;103082.41;5039983;28;20195;-71
2021/04/25 05:40:55;;;;;;;9.13;3.75;;;;;;;5.60;59.83;103084.25;5037063;28;20068;-71
2021/04/25 05:43:22;;;;;;;10.70;3.67;;;;;;;5.64;60.08;103092.28;5043224;28;20491;-71
2021/04/25 05:45:49;;;;;;;10.57;4.03;;;;;;;5.63;60.26;103083.44;5043455;28;20071;-71
2021/04/25 05:48:16;;;;;;;9.00;3.60;;;;;;;5.69;59.38;103086.25;5055475;28;20238;-71
2021/04/25 05:50:43;;;;;;;11.15;4.10;;;;;;;5.77;58.63;103087.31;5038867;28;20431;-71
2021/04/25 05:53:13;;;;;;;9.82;3.80;;;;;;;5.73;59.11;103096.03;5044084;28;20096;-77
2021/04/25 05:55:42;;;;;;;16.55;4.78;;;;;;;5.79;58.55;103097.97;5044974;28;20064;-77
2021/04/25 05:58:11;;;;;;;11.07;4.35;;;;;;;5.68;58.08;103097.69;5043670;28;20284;-77
2021/04/25 06:00:39;;;;;;;13.05;4.03;;;;;;;5.72;58.44;103101.28;5042449;28;20057;-78
2021/04/25 06:03:07;;;;;;;11.32;3.63;;;;;;;5.82;58.36;103094.47;5045185;28;20387;-77
2021/04/25 06:05:35;;;;;;;9.07;3.65;;;;;;;5.82;57.90;103098.00;5044162;28;20060;-75
2021/04/25 06:08:03;;;;;;;8.57;3.78;;;;;;;5.91;58.29;103095.59;5048711;28;20448;-78
2021/04/25 06:10:31;;;;;;;11.30;4.85;;;;;;;5.96;58.57;103103.69;5047190;28;20057;-78
2021/04/25 06:12:59;;;;;;;10.82;3.38;;;;;;;6.00;58.31;103105.53;5045513;28;20059;-76
2021/04/25 06:15:28;;;;;;;10.30;3.35;;;;;;;6.06;58.03;103107.41;5044681;28;20057;-77
2021/04/25 06:17:57;;;;;;;14.30;3.90;;;;;;;6.06;57.52;103108.34;5042929;28;20057;-76
2021/04/25 06:20:24;;;;;;;8.88;4.05;;;;;;;6.11;57.75;103116.38;5059998;28;20061;-76
2021/04/25 06:22:51;;;;;;;11.48;4.90;;;;;;;6.13;57.36;103112.91;5043324;28;20166;-77
2021/04/25 06:25:18;;;;;;;9.32;4.07;;;;;;;6.21;58.06;103112.19;5043795;28;20061;-77
2021/04/25 06:27:45;;;;;;;8.15;3.38;;;;;;;6.26;58.32;103110.53;5045018;28;20053;-76
2021/04/25 06:30:14;;;;;;;11.25;3.70;;;;;;;6.26;58.15;103110.53;5043502;28;20089;-77
2021/04/25 06:32:42;;;;;;;8.52;4.20;;;;;;;6.19;58.23;103104.19;5043826;28;20175;-76
2021/04/25 06:35:11;;;;;;;10.93;3.45;;;;;;;6.23;58.63;103108.72;5043649;28;20087;-76
2021/04/25 06:37:38;;;;;;;11.50;3.80;;;;;;;6.23;58.57;103116.69;5042110;28;20107;-70
2021/04/25 06:40:07;;;;;;;12.57;4.20;;;;;;;6.30;58.72;103117.69;5037098;28;20060;-70
2021/04/25 06:42:35;;;;;;;8.18;4.03;;;;;;;6.36;59.11;103109.88;5042410;28;20064;-69
2021/04/25 06:45:03;;;;;;;9.90;4.03;;;;;;;6.33;58.23;103113.38;5037061;28;20057;-73
2021/04/25 06:47:30;;;;;;;7.47;4.03;;;;;;;6.43;58.12;103109.13;5041238;28;20144;-70
2021/04/25 06:49:58;;;;;;;12.50;3.88;;;;;;;6.46;58.41;103121.56;5037880;28;20106;-70
2021/04/25 06:52:24;;;;;;;11.40;4.43;;;;;;;6.46;58.44;103109.19;5037864;28;20064;-70
2021/04/25 06:54:52;;;;;;;10.55;4.68;;;;;;;6.52;58.22;103119.03;5035411;28;20144;-70
2021/04/25 06:57:21;;;;;;;10.45;3.65;;;;;;;6.44;57.76;103107.41;5039889;28;20057;-70
2021/04/25 06:59:48;;;;;;;10.25;3.80;;;;;;;6.46;56.74;103116.28;5038499;28;20178;-70
2021/04/25 07:02:15;;;;;;;9.35;3.63;;;;;;;6.48;56.72;103112.78;5037736;28;20436;-69
2021/04/25 07:04:42;;;;;;;5.43;3.22;;;;;;;6.48;56.21;103111.88;5039992;28;20041;-70
2021/04/25 07:07:11;;;;;;;12.75;3.72;;;;;;;6.56;56.18;103120.03;5038636;28;20447;-70
2021/04/25 07:09:41;;;;;;;13.35;4.10;;;;;;;6.56;56.82;103120.91;5041217;28;20098;-70
2021/04/25 07:12:09;;;;;;;9.35;3.83;;;;;;;6.70;56.70;103123.84;5040798;28;20511;-70
2021/04/25 07:14:36;;;;;;;9.55;4.35;;;;;;;6.80;56.13;103116.97;5036561;28;20053;-69
2021/04/25 07:17:03;;;;;;;9.20;3.70;;;;;;;6.76;55.99;103123.06;5041151;28;20061;-71
2021/04/25 07:19:32;;;;;;;8.80;3.50;;;;;;;6.64;55.51;103123.69;5038321;28;20061;-70
2021/04/25 07:21:59;;;;;;;10.07;4.15;;;;;;;6.63;56.09;103129.88;5036321;28;20057;-70
2021/04/25 07:24:28;;;;;;;6.93;3.70;;;;;;;6.71;55.67;103134.50;5037078;28;20061;-71
2021/04/25 07:26:55;;;;;;;10.27;3.10;;;;;;;6.62;56.18;103134.28;5053295;28;20171;-69
2021/04/25 07:29:22;;;;;;;6.45;3.22;;;;;;;6.65;55.18;103138.78;5038990;28;20068;-72
2021/04/25 07:31:50;;;;;;;10.43;3.40;;;;;;;6.65;55.24;103136.13;5055189;28;20083;-76
2021/04/25 07:34:17;;;;;;;7.45;3.00;;;;;;;6.84;55.57;103138.25;5046903;28;20067;-76
2021/04/25 07:36:44;;;;;;;8.40;3.55;;;;;;;6.88;54.95;103133.94;5042225;28;20053;-77
2021/04/25 07:39:11;;;;;;;8.98;3.35;;;;;;;6.88;54.87;103132.19;5045911;28;20057;-79
2021/04/25 07:41:39;;;;;;;6.15;2.80;;;;;;;6.72;55.32;103130.06;5024201;28;20178;-77
2021/04/25 07:44:06;;;;;;;7.90;3.78;;;;;;;6.92;55.49;103144.63;5044763;28;20122;-77
2021/04/25 07:46:33;;;;;;;8.13;3.45;;;;;;;7.08;55.26;103142.28;5034623;28;20088;-71
2021/04/25 07:49:00;;;;;;;9.45;3.28;;;;;;;7.22;54.95;103132.81;5036330;28;20167;-71
2021/04/25 07:51:27;;;;;;;6.75;2.90;;;;;;;7.32;53.98;103127.66;5034451;28;20059;-70
2021/04/25 07:53:56;;;;;;;7.47;3.33;;;;;;;7.20;54.41;103120.38;5035469;28;20444;-70
2021/04/25 07:56:23;;;;;;;9.60;3.80;;;;;;;7.13;54.19;103135.28;5039690;28;20064;-70
2021/04/25 07:58:51;;;;;;;9.88;3.50;;;;;;;7.23;54.96;103128.41;5035573;28;20140;-70
2021/04/25 08:01:19;;;;;;;8.10;3.00;;;;;;;7.36;55.06;103127.75;5041597;28;20343;-70
2021/04/25 08:03:46;;;;;;;11.07;3.30;;;;;;;7.36;54.79;103130.41;5034420;28;20052;-70
2021/04/25 08:06:13;;;;;;;13.85;3.28;;;;;;;7.34;54.84;103128.56;5042014;28;20181;-70
2021/04/25 08:08:40;;;;;;;12.65;3.28;;;;;;;7.47;54.68;103119.97;5037041;28;20068;-71
2021/04/25 08:11:07;;;;;;;8.55;2.97;;;;;;;7.53;54.73;103120.09;5037349;28;20514;-69
2021/04/25 08:13:35;;;;;;;13.23;3.10;;;;;;;7.57;54.51;103132.53;5036506;28;20048;-70
2021/04/25 08:16:03;;;;;;;8.77;3.75;;;;;;;7.67;53.18;103125.63;5035163;28;20062;-70
2021/04/25 08:18:31;;;;;;;5.03;2.38;;;;;;;7.61;53.31;103125.50;5038443;28;20059;-70
2021/04/25 08:20:58;;;;;;;8.43;3.17;;;;;;;7.80;53.79;103129.38;5036405;28;20061;-70
2021/04/25 08:23:25;;;;;;;8.82;2.97;;;;;;;7.75;52.68;103123.09;5034416;28;20064;-70
2021/04/25 08:25:52;;;;;;;8.60;2.72;;;;;;;7.69;52.18;103126.53;5038805;28;20057;-70
2021/04/25 08:28:20;;;;;;;8.55;3.17;;;;;;;7.66;51.85;103135.38;5036351;28;20164;-70
2021/04/25 08:30:47;;;;;;;5.28;2.50;;;;;;;7.84;51.95;103117.91;5034946;28;20060;-70
2021/04/25 08:33:15;;;;;;;6.40;2.80;;;;;;;8.00;51.98;103129.66;5036498;28;20057;-71
2021/04/25 08:35:42;;;;;;;9.18;3.38;;;;;;;8.03;52.21;103133.25;5041488;28;20057;-70
2021/04/25 08:38:09;;;;;;;7.65;2.75;;;;;;;7.96;51.51;103130.50;5055170;28;20448;-70
2021/04/25 08:40:36;;;;;;;5.50;2.83;;;;;;;8.09;51.73;103127.16;5040399;28;20061;-70
2021/04/25 08:43:03;;;;;;;7.53;3.20;;;;;;;8.12;51.67;103120.97;5041364;28;20619;-70
2021/04/25 08:45:31;;;;;;;7.72;3.97;;;;;;;8.11;51.46;103127.19;5035665;28;20496;-70
2021/04/25 08:48:00;;;;;;;7.95;2.88;;;;;;;8.06;51.08;103116.47;5040941;28;20242;-70
2021/04/25 08:50:30;;;;;;;11.00;2.83;;;;;;;8.15;50.97;103118.38;5038768;28;20495;-70
2021/04/25 08:52:58;;;;;;;8.60;2.67;;;;;;;8.14;50.51;103112.16;5043937;28;20057;-70
2021/04/25 08:55:28;;;;;;;8.60;2.95;;;;;;;8.29;50.13;103119.47;5037788;28;20063;-70
2021/04/25 08:57:55;;;;;;;7.20;2.97;;;;;;;8.01;50.88;103113.75;5041112;28;20455;-72
2021/04/25 09:00:23;;;;;;;9.60;3.20;;;;;;;8.15;50.72;103121.91;5038531;28;20067;-70
2021/04/25 09:02:51;;;;;;;9.25;2.90;;;;;;;8.14;50.30;103120.16;5044782;28;21191;-71
2021/04/25 09:05:18;;;;;;;8.88;3.08;;;;;;;8.31;50.31;103107.09;5036126;28;20478;-71
2021/04/25 09:07:57;;;;;;;7.03;3.40;;;;;;;8.66;49.26;103122.63;5040371;28;20547;-71
2021/04/25 09:10:33;;;;;;;7.68;2.85;;;;;;;8.76;48.39;103115.66;5038516;28;20454;-71
2021/04/25 09:13:01;;;;;;;8.13;2.72;;;;;;;8.84;48.23;103118.41;5039565;28;20519;-71
2021/04/25 09:15:33;;;;;;;6.65;2.90;;;;;;;9.14;47.76;103117.84;5040701;28;20151;-75
2021/04/25 09:18:03;;;;;;;9.85;3.03;;;;;;;8.99;48.27;103115.94;5041563;28;20057;-75
2021/04/25 09:20:34;;;;;;;8.63;3.20;;;;;;;9.08;48.12;103117.78;5042960;28;20065;-75
2021/04/25 09:23:02;;;;;;;10.15;2.80;;;;;;;9.12;47.10;103109.81;5042769;28;20116;-75
2021/04/25 09:25:29;;;;;;;10.90;3.38;;;;;;;9.19;47.23;103113.44;5041177;28;20539;-75
2021/04/25 09:28:16;;;;;;;6.63;2.85;;;;;;;9.32;46.98;103109.16;5039247;28;20061;-74
2021/04/25 09:30:58;;;;;;;7.70;3.00;;;;;;;9.58;47.04;103105.81;5040678;28;20884;-75
2021/04/25 09:33:27;;;;;;;10.75;3.95;;;;;;;9.67;46.54;103098.78;5036819;28;20057;-75
2021/04/25 09:35:56;;;;;;;8.23;2.60;;;;;;;9.51;46.13;103111.06;5038075;28;20056;-75
2021/04/25 09:38:33;;;;;;;9.10;2.80;;;;;;;9.25;46.68;103105.53;5038470;28;20457;-74
2021/04/25 09:41:00;;;;;;;8.95;3.10;;;;;;;9.35;47.46;103114.50;5052218;28;20056;-71
2021/04/25 09:43:28;;;;;;;7.72;2.53;;;;;;;9.24;47.40;103109.06;5038710;28;20110;-71
2021/04/25 09:45:57;;;;;;;6.13;2.53;;;;;;;9.35;47.11;103111.84;5036764;28;20096;-71
2021/04/25 09:48:27;;;;;;;10.05;3.33;;;;;;;9.24;47.48;103118.81;5036481;28;20505;-70
2021/04/25 09:51:11;;;;;;;10.77;3.25;;;;;;;9.21;47.67;103117.03;5038755;28;20111;-69
2021/04/25 09:53:40;;;;;;;11.32;3.17;;;;;;;9.39;46.79;103113.63;5042305;28;20242;-70
2021/04/25 09:56:09;;;;;;;9.15;4.07;;;;;;;9.58;46.66;103095.16;5039258;28;20064;-69
2021/04/25 09:58:59;;;;;;;7.13;2.70;;;;;;;9.76;47.23;103087.28;5037425;28;20492;-70
2021/04/25 10:01:28;;;;;;;8.35;2.80;;;;;;;9.93;47.25;103103.41;5034912;28;20346;-70
2021/04/25 10:03:56;;;;;;;5.65;2.47;;;;;;;9.86;47.14;103102.47;5037093;28;20071;-73
2021/04/25 10:06:23;;;;;;;4.25;2.38;;;;;;;9.73;47.25;103093.47;5041562;28;20068;-72
2021/04/25 10:08:52;;;;;;;5.38;2.60;;;;;;;9.29;48.14;103093.13;5036068;28;20068;-72
2021/04/25 10:11:20;;;;;;;9.00;3.63;;;;;;;9.68;48.15;103094.34;5036694;28;20061;-72
2021/04/25 10:13:48;;;;;;;9.43;2.85;;;;;;;9.36;48.64;103097.63;5037655;28;20052;-71
2021/04/25 10:16:16;;;;;;;11.38;3.08;;;;;;;9.19;48.85;103094.81;5041703;28;20079;-73
2021/04/25 10:18:44;;;;;;;10.63;3.67;;;;;;;9.21;49.10;103082.41;5037001;28;20351;-75
2021/04/25 10:21:12;;;;;;;8.43;2.95;;;;;;;9.38;49.08;103084.31;5041530;28;20427;-74
2021/04/25 10:23:39;;;;;;;8.30;2.78;;;;;;;9.60;48.33;103088.06;5037709;28;20165;-72
2021/04/25 10:26:10;;;;;;;8.90;3.40;;;;;;;9.54;49.02;103089.78;5041302;28;20075;-73
2021/04/25 10:28:42;;;;;;;7.00;3.45;;;;;;;9.73;48.99;103082.81;5041662;28;20291;-74
2021/04/25 10:31:12;;;;;;;9.57;3.78;;;;;;;9.75;47.83;103087.28;5038474;28;20052;-75
2021/04/25 10:33:53;;;;;;;8.43;3.35;;;;;;;9.85;47.25;103091.78;5037522;28;20401;-73
2021/04/25 10:36:20;;;;;;;9.82;3.47;;;;;;;9.76;47.34;103089.97;5039699;28;20114;-75
2021/04/25 10:38:48;;;;;;;8.77;3.33;;;;;;;9.70;48.03;103084.56;5040160;28;20360;-75
2021/04/25 10:41:24;;;;;;;7.80;2.90;;;;;;;10.00;48.08;103083.88;5038888;28;20294;-71
2021/04/25 10:43:59;;;;;;;7.15;2.90;;;;;;;10.10;47.77;103077.72;5039198;28;20060;-71
2021/04/25 10:46:26;;;;;;;7.78;3.35;;;;;;;9.99;47.54;103082.09;5038873;28;20375;-71
2021/04/25 10:49:25;;;;;;;8.00;2.92;;;;;;;10.24;47.46;103080.47;5037866;28;20608;-71
2021/04/25 10:51:52;;;;;;;10.73;3.30;;;;;;;10.05;46.66;103081.25;5037194;28;20060;-72
2021/04/25 10:54:19;;;;;;;7.75;3.08;;;;;;;10.17;46.26;103075.97;5036260;28;20076;-71
2021/04/25 10:57:06;;;;;;;10.18;3.45;;;;;;;10.24;46.58;103079.56;5042438;28;20080;-71
2021/04/25 10:59:34;;;;;;;9.57;3.85;;;;;;;9.91;47.12;103070.50;5035875;28;20099;-72
2021/04/25 11:02:02;;;;;;;11.55;3.80;;;;;;;10.22;47.20;103070.69;5038042;28;20472;-71
2021/04/25 11:04:55;;;;;;;9.18;3.35;;;;;;;10.39;46.63;103068.13;5040506;28;20052;-72
2021/04/25 11:07:45;;;;;;;8.95;3.08;;;;;;;10.31;46.58;103072.50;5040133;28;20061;-72
2021/04/25 11:10:19;;;;;;;8.35;3.30;;;;;;;10.32;46.94;103067.19;5035108;28;20284;-72
2021/04/25 11:12:48;;;;;;;8.18;3.35;;;;;;;10.46;46.03;103080.59;5041773;28;20531;-76
2021/04/25 11:15:50;;;;;;;5.65;3.03;;;;;;;10.16;46.59;103070.63;5032398;28;20061;-75
2021/04/25 11:18:48;;;;;;;14.18;3.47;;;;;;;10.11;46.68;103067.94;5040459;28;20077;-77
2021/04/25 11:21:48;;;;;;;7.20;2.70;;;;;;;10.09;47.34;103059.03;5037095;28;20071;-76
2021/04/25 11:24:28;;;;;;;8.55;3.20;;;;;;;10.04;47.09;103056.34;5040763;28;20447;-76
2021/04/25 11:26:58;;;;;;;9.30;3.50;;;;;;;10.26;46.99;103045.78;5035616;28;20056;-76
2021/04/25 11:30:04;;;;;;;9.98;3.50;;;;;;;10.51;46.53;103053.94;5041860;28;20163;-75
2021/04/25 11:32:36;;;;;;;9.95;3.80;;;;;;;10.59;46.78;103054.81;5036362;28;20538;-72
2021/04/25 11:35:11;;;;;;;11.63;3.58;;;;;;;10.72;46.04;103058.44;5042264;28;20140;-72